createdAt,value
2022-09-05T00:00:04.789Z,947.88
2022-09-05T00:05:03.189Z,947.94
2022-09-05T00:10:03.449Z,948.18
2022-09-05T00:15:15.756Z,948.43
2022-09-05T00:21:48.263Z,948.41
2022-09-05T00:31:08.432Z,948.41
2022-09-05T00:35:03.166Z,948.51
2022-09-05T00:40:11.237Z,948.77
2022-09-05T00:45:03.103Z,948.65
2022-09-05T00:50:03.369Z,948.73
2022-09-05T00:55:03.177Z,948.88
2022-09-05T01:00:03.254Z,948.92
2022-09-05T01:05:03.880Z,948.94
2022-09-05T01:10:03.293Z,948.84
2022-09-05T01:15:03.070Z,948.65
2022-09-05T01:20:04.950Z,948.79
2022-09-05T01:25:04.352Z,948.61
2022-09-05T01:30:03.177Z,948.57
2022-09-05T01:35:03.152Z,948.57
2022-09-05T01:40:12.820Z,948.57
2022-09-05T01:45:03.261Z,949.02
2022-09-05T01:50:03.166Z,949.06
2022-09-05T01:55:03.127Z,949.14
2022-09-05T02:00:03.224Z,949.14
2022-09-05T02:05:03.178Z,949.12
2022-09-05T02:10:06.900Z,949.16
2022-09-05T02:15:03.134Z,949.10
2022-09-05T02:20:03.538Z,949.12
2022-09-05T02:25:21.959Z,949.16
2022-09-05T02:30:03.194Z,949.31
2022-09-05T02:35:03.184Z,949.35
2022-09-05T02:45:04.527Z,949.28
2022-09-05T02:45:23.565Z,949.18
2022-09-05T02:50:20.583Z,949.06
2022-09-05T02:57:30.730Z,949.04
2022-09-05T03:00:03.334Z,949.04
2022-09-05T03:05:04.427Z,949.06
2022-09-05T03:10:03.293Z,949.24
2022-09-05T03:15:03.251Z,949.12
2022-09-05T03:20:08.163Z,949.18
2022-09-05T03:25:03.329Z,949.22
2022-09-05T03:30:03.233Z,949.12
2022-09-05T03:35:06.436Z,948.88
2022-09-05T03:40:15.513Z,948.88
2022-09-05T03:45:03.246Z,948.92
2022-09-05T03:51:09.301Z,948.86
2022-09-05T03:57:09.203Z,948.73
2022-09-05T04:00:04.040Z,948.53
2022-09-05T04:08:12.502Z,948.41
2022-09-05T04:10:03.706Z,948.57
2022-09-05T04:15:03.218Z,948.59
2022-09-05T04:20:03.266Z,948.53
2022-09-05T04:25:03.107Z,948.45
2022-09-05T04:30:06.600Z,948.37
2022-09-05T04:35:03.107Z,948.08
2022-09-05T04:40:03.454Z,947.98
2022-09-05T04:45:03.188Z,947.98
2022-09-05T04:50:03.219Z,947.98
2022-09-05T04:55:03.037Z,948.00
2022-09-05T05:00:49.820Z,947.90
2022-09-05T05:06:06.629Z,947.96
2022-09-05T05:10:20.314Z,947.90
2022-09-05T05:17:40.405Z,947.88
2022-09-05T05:20:39.569Z,947.79
2022-09-05T05:25:03.229Z,947.86
2022-09-05T05:30:03.153Z,947.77
2022-09-05T05:35:03.128Z,947.73
2022-09-05T05:40:03.342Z,947.69
2022-09-05T05:45:03.226Z,947.63
2022-09-05T05:50:03.298Z,947.69
2022-09-05T05:55:24.420Z,947.77
2022-09-05T06:00:03.192Z,947.80
2022-09-05T06:05:04.081Z,947.94
2022-09-05T06:12:53.640Z,947.84
2022-09-05T06:15:10.024Z,947.80
2022-09-05T06:20:09.664Z,947.80
2022-09-05T06:25:07.775Z,947.84
2022-09-05T06:30:03.239Z,947.79
2022-09-05T06:35:03.273Z,947.61
2022-09-05T06:40:03.335Z,947.39
2022-09-05T06:45:12.756Z,947.29
2022-09-05T06:50:04.507Z,946.98
2022-09-05T06:55:03.086Z,946.76
2022-09-05T07:00:03.160Z,946.76
2022-09-05T07:05:24.348Z,947.12
2022-09-05T07:10:12.271Z,947.57
2022-09-05T07:15:08.566Z,947.63
2022-09-05T07:20:03.302Z,947.80
2022-09-05T07:25:03.019Z,947.63
2022-09-05T07:30:03.113Z,947.63
2022-09-05T07:35:08.186Z,947.65
2022-09-05T07:40:04.083Z,947.49
2022-09-05T07:45:03.146Z,947.45
2022-09-05T07:50:40.154Z,947.59
2022-09-05T07:56:48.518Z,947.77
2022-09-05T08:00:03.132Z,947.94
2022-09-05T08:05:03.207Z,947.96
2022-09-05T08:10:07.143Z,948.00
2022-09-05T08:15:03.864Z,948.20
2022-09-05T08:20:08.728Z,948.30
2022-09-05T08:25:03.279Z,948.53
2022-09-05T08:30:25.302Z,948.84
2022-09-05T08:35:03.114Z,948.90
2022-09-05T08:40:11.280Z,948.92
2022-09-05T08:46:38.676Z,948.86
2022-09-05T08:50:03.303Z,949.02
2022-09-05T08:55:07.010Z,949.18
2022-09-05T09:00:18.756Z,949.14
2022-09-05T09:05:03.272Z,948.96
2022-09-05T09:10:03.525Z,948.84
2022-09-05T09:15:03.200Z,948.84
2022-09-05T09:20:03.314Z,948.92
2022-09-05T09:25:08.802Z,948.90
2022-09-05T09:30:03.106Z,948.79
2022-09-05T09:35:05.620Z,948.84
2022-09-05T09:40:03.263Z,949.02
2022-09-05T09:45:22.628Z,949.04
2022-09-05T09:50:03.391Z,949.08
2022-09-05T09:55:03.192Z,948.96
2022-09-05T10:00:03.100Z,948.84
2022-09-05T10:09:38.407Z,948.98
2022-09-05T10:10:41.219Z,949.02
2022-09-05T10:15:13.260Z,949.22
2022-09-05T10:20:08.449Z,949.47
2022-09-05T10:25:15.043Z,949.75
2022-09-05T10:30:03.330Z,949.84
2022-09-05T10:35:20.470Z,949.96
2022-09-05T10:40:03.264Z,950.02
2022-09-05T10:45:03.251Z,949.94
2022-09-05T10:50:03.298Z,949.82
2022-09-05T10:55:13.561Z,949.69
2022-09-05T11:00:52.058Z,949.26
2022-09-05T11:05:03.686Z,949.04
2022-09-05T11:10:03.180Z,949.30
2022-09-05T11:15:03.158Z,949.31
2022-09-05T11:20:03.395Z,949.39
2022-09-05T11:25:03.167Z,949.35
2022-09-05T11:30:03.247Z,949.39
2022-09-05T11:39:00.797Z,949.51
2022-09-05T11:40:26.829Z,949.77
2022-09-05T11:45:03.097Z,949.84
2022-09-05T11:50:03.563Z,950.06
2022-09-05T11:55:03.179Z,950.33
2022-09-05T12:00:32.337Z,950.49
2022-09-05T12:05:47.283Z,950.41
2022-09-05T12:10:03.204Z,950.45
2022-09-05T12:15:04.277Z,950.49
2022-09-05T12:20:16.710Z,950.67
2022-09-05T12:25:16.729Z,950.87
2022-09-05T12:30:03.678Z,950.85
2022-09-05T12:36:03.447Z,950.88
2022-09-05T12:40:54.443Z,950.81
2022-09-05T12:45:03.436Z,950.55
2022-09-05T12:50:14.183Z,950.43
2022-09-05T12:55:03.134Z,950.49
2022-09-05T13:02:59.788Z,950.57
2022-09-05T13:05:03.570Z,950.49
2022-09-05T13:10:26.225Z,950.41
2022-09-05T13:15:18.487Z,950.59
2022-09-05T13:20:03.169Z,950.59
2022-09-05T13:25:03.192Z,950.55
2022-09-05T13:31:24.882Z,950.49
2022-09-05T13:37:57.874Z,950.33
2022-09-05T13:40:03.359Z,950.39
2022-09-05T13:45:03.116Z,950.57
2022-09-05T13:50:05.259Z,950.53
2022-09-05T13:55:03.180Z,950.73
2022-09-05T14:00:03.289Z,950.98
2022-09-05T14:05:06.326Z,950.51
2022-09-05T14:10:03.155Z,950.26
2022-09-05T14:15:08.639Z,949.63
2022-09-05T14:20:03.238Z,949.41
2022-09-05T14:25:03.540Z,949.61
2022-09-05T14:30:36.926Z,949.81
2022-09-05T14:37:38.453Z,949.92
2022-09-05T14:40:19.296Z,950.06
2022-09-05T14:45:03.067Z,950.00
2022-09-05T14:50:03.842Z,949.84
2022-09-05T15:02:40.011Z,949.10
2022-09-05T15:05:11.020Z,949.00
2022-09-05T15:11:25.958Z,948.86
2022-09-05T15:15:03.154Z,948.63
2022-09-05T15:20:06.007Z,948.75
2022-09-05T15:25:12.370Z,948.96
2022-09-05T15:30:03.295Z,949.31
2022-09-05T15:35:03.288Z,949.28
2022-09-05T15:40:03.229Z,949.00
2022-09-05T15:45:11.024Z,948.84
2022-09-05T15:50:03.255Z,948.84
2022-09-05T15:55:03.196Z,949.20
2022-09-05T16:00:03.301Z,949.16
2022-09-05T16:07:45.961Z,949.28
2022-09-05T16:10:32.477Z,949.35
2022-09-05T16:15:10.447Z,949.35
2022-09-05T16:23:21.222Z,949.33
2022-09-05T16:25:03.196Z,949.37
2022-09-05T16:30:03.297Z,949.33
2022-09-05T16:35:03.267Z,949.26
2022-09-05T16:40:03.530Z,949.20
2022-09-05T16:45:03.078Z,949.18
2022-09-05T16:50:03.319Z,949.24
2022-09-05T16:55:03.258Z,949.30
2022-09-05T17:00:03.215Z,949.37
2022-09-05T17:05:05.645Z,949.35
2022-09-05T17:10:03.334Z,949.37
2022-09-05T17:15:03.258Z,949.35
2022-09-05T17:20:05.817Z,949.31
2022-09-05T17:29:22.507Z,949.28
2022-09-05T17:31:10.624Z,949.18
2022-09-05T17:35:16.977Z,949.10
2022-09-05T17:40:03.385Z,949.14
2022-09-05T17:45:03.059Z,949.18
2022-09-05T17:50:03.179Z,949.06
2022-09-05T17:55:03.267Z,949.02
2022-09-05T18:00:05.775Z,949.06
2022-09-05T18:05:03.205Z,949.16
2022-09-05T18:10:13.254Z,949.08
2022-09-05T18:15:04.988Z,949.10
2022-09-05T18:20:06.347Z,949.16
2022-09-05T18:25:13.849Z,949.16
2022-09-05T18:30:03.251Z,949.22
2022-09-05T18:35:03.183Z,949.22
2022-09-05T18:40:03.283Z,949.28
2022-09-05T18:45:03.065Z,949.26
2022-09-05T18:50:24.454Z,949.20
2022-09-05T18:55:52.716Z,949.24
2022-09-05T19:00:03.354Z,949.28
2022-09-05T19:05:03.233Z,949.22
2022-09-05T19:10:06.578Z,949.33
2022-09-05T19:15:07.053Z,949.30
2022-09-05T19:20:05.202Z,949.30
2022-09-05T19:25:03.200Z,949.41
2022-09-05T19:36:47.933Z,949.39
2022-09-05T19:37:00.387Z,949.43
2022-09-05T19:43:10.871Z,949.51
2022-09-05T19:47:45.834Z,949.37
2022-09-05T19:50:03.276Z,949.16
2022-09-05T19:55:03.225Z,949.35
2022-09-05T20:00:03.211Z,949.39
2022-09-05T20:05:03.236Z,949.45
2022-09-05T20:10:03.366Z,949.51
2022-09-05T20:15:03.270Z,949.55
2022-09-05T20:20:03.228Z,949.73
2022-09-05T20:25:03.092Z,949.79
2022-09-05T20:30:03.250Z,949.82
2022-09-05T20:36:40.206Z,949.84
2022-09-05T20:43:14.324Z,949.84
2022-09-05T20:45:03.345Z,949.90
2022-09-05T20:54:11.580Z,949.90
2022-09-05T20:55:16.070Z,949.82
2022-09-05T21:00:03.279Z,949.94
2022-09-05T21:05:06.689Z,949.98
2022-09-05T21:10:03.306Z,949.94
2022-09-05T21:15:03.208Z,950.26
2022-09-05T21:20:06.175Z,950.43
2022-09-05T21:25:03.439Z,950.37
2022-09-05T21:30:03.313Z,950.61
2022-09-05T21:35:03.011Z,950.79
2022-09-05T21:40:03.261Z,950.59
2022-09-05T21:47:45.438Z,950.53
2022-09-05T21:50:03.389Z,950.37
2022-09-05T21:57:19.800Z,950.67
2022-09-05T22:00:07.041Z,950.65
2022-09-05T22:05:03.582Z,950.79
2022-09-05T22:10:03.294Z,951.08
2022-09-05T22:15:08.701Z,951.02
2022-09-05T22:20:03.155Z,950.67
2022-09-05T22:25:03.080Z,950.69
2022-09-05T22:30:03.282Z,950.83
2022-09-05T22:35:16.100Z,950.51
2022-09-05T22:40:03.318Z,950.59
2022-09-05T22:45:03.384Z,950.83
2022-09-05T22:50:03.406Z,950.43
2022-09-05T22:55:03.108Z,950.28
2022-09-05T23:00:03.212Z,950.26
2022-09-05T23:05:03.150Z,950.10
2022-09-05T23:10:03.222Z,950.08
2022-09-05T23:15:03.177Z,950.10
2022-09-05T23:20:03.400Z,950.14
2022-09-05T23:25:03.049Z,950.12
2022-09-05T23:30:03.133Z,950.14
2022-09-05T23:35:03.172Z,950.14
2022-09-05T23:40:03.633Z,950.26
2022-09-05T23:45:03.227Z,950.16
2022-09-05T23:50:03.350Z,949.96
2022-09-05T23:55:03.089Z,949.75
